Time;durP1;ratioP1;P1;durP2;ratioP2;P2;SDS_P1;SDS_P2;PMS_P1;PMS_P2;Temp;Humidity;BMP_temperature;BMP_pressure;BME280_temperature;BME280_humidity;BME280_pressure;Samples;Min_cycle;Max_cycle;Signal;HPM_P1;HPM_P2
2022/02/12 00:00:05;;;;;;;;;;;;;;;16.92;54.41;100766.34;2065864;28;19929;-43
2022/02/12 00:01:05;;;;;;;;;;;;;;;16.92;54.44;100766.34;2066508;28;20307;-42
2022/02/12 00:02:05;;;;;;;;;;;;;;;16.92;54.65;100766.34;2063297;28;19936;-43
2022/02/12 00:03:06;;;;;;;;;;;;;;;16.91;54.42;100765.47;2064248;28;19913;-43
2022/02/12 00:04:06;;;;;;;;;;;;;;;16.92;54.51;100771.78;2057268;28;20360;-43
2022/02/12 00:05:07;;;;;;;;;;;;;;;16.93;54.26;100776.25;2058020;28;19913;-41
2022/02/12 00:06:07;;;;;;;;;;;;;;;16.91;54.42;100772.78;2067275;28;19924;-42
2022/02/12 00:07:09;;;;;;;;;;;;;;;16.91;54.53;100770.06;2065434;28;19921;-42
2022/02/12 00:08:09;;;;;;;;;;;;;;;16.91;54.50;100764.63;2065714;28;20081;-45
2022/02/12 00:09:10;;;;;;;;;;;;;;;16.91;54.74;100770.94;2064677;28;19925;-42
2022/02/12 00:10:10;;;;;;;;;;;;;;;16.91;54.71;100767.34;2063827;28;20010;-43
2022/02/12 00:11:11;;;;;;;;;;;;;;;16.89;54.55;100769.31;2058385;28;19936;-44
2022/02/12 00:12:11;;;;;;;;;;;;;;;16.89;54.55;100766.59;2059164;28;20004;-44
2022/02/12 00:13:11;;;;;;;;;;;;;;;16.86;54.13;100766.84;2058212;28;19921;-44
2022/02/12 00:14:12;;;;;;;;;;;;;;;16.84;54.44;100768.81;2060183;28;20128;-45
2022/02/12 00:15:12;;;;;;;;;;;;;;;16.81;54.42;100769.91;2065724;28;19931;-44
2022/02/12 00:16:13;;;;;;;;;;;;;;;16.80;54.46;100767.28;2067767;28;19984;-43
2022/02/12 00:17:13;;;;;;;;;;;;;;;16.79;54.64;100768.28;2060768;28;20324;-44
2022/02/12 00:18:15;;;;;;;;;;;;;;;16.77;54.39;100762.06;2066669;28;19921;-43
2022/02/12 00:19:15;;;;;;;;;;;;;;;16.75;54.43;100766.75;2067686;28;20729;-44
2022/02/12 00:20:16;;;;;;;;;;;;;;;16.76;54.45;100760.34;2075571;28;19949;-42
2022/02/12 00:21:16;;;;;;;;;;;;;;;16.74;54.43;100763.16;2067079;28;19979;-47
2022/02/12 00:22:16;;;;;;;;;;;;;;;16.73;54.18;100761.41;2067255;28;19909;-44
2022/02/12 00:23:17;;;;;;;;;;;;;;;16.72;54.27;100759.69;2065542;28;20146;-45
2022/02/12 00:24:17;;;;;;;;;;;;;;;16.72;54.26;100760.56;2066798;28;20043;-44
2022/02/12 00:25:17;;;;;;;;;;;;;;;16.71;54.33;100756.09;2057414;28;20187;-44
2022/02/12 00:26:20;;;;;;;;;;;;;;;16.71;54.55;100758.81;2058476;28;20074;-45
2022/02/12 00:27:20;;;;;;;;;;;;;;;16.68;54.49;100759.06;2061806;28;19921;-44
2022/02/12 00:28:21;;;;;;;;;;;;;;;16.67;54.28;100757.31;2064170;28;19943;-44
2022/02/12 00:29:22;;;;;;;;;;;;;;;16.67;54.37;100754.59;2066163;28;20228;-44
2022/02/12 00:30:22;;;;;;;;;;;;;;;16.67;54.31;100757.31;2067028;28;19927;-61
2022/02/12 00:31:22;;;;;;;;;;;;;;;16.68;54.30;100753.63;2067742;28;20016;-44
2022/02/12 00:32:23;;;;;;;;;;;;;;;16.66;54.40;100750.16;2068668;28;19971;-45
2022/02/12 00:33:24;;;;;;;;;;;;;;;16.66;54.25;100755.59;2066810;28;20007;-44
2022/02/12 00:34:24;;;;;;;;;;;;;;;16.64;54.48;100752.13;2068593;28;20221;-44
2022/02/12 00:35:25;;;;;;;;;;;;;;;16.65;54.34;100752.97;2071742;28;19927;-45
2022/02/12 00:36:25;;;;;;;;;;;;;;;16.64;54.19;100752.13;2065924;28;19996;-44
2022/02/12 00:37:28;;;;;;;;;;;;;;;16.65;54.21;100755.69;2068015;28;19913;-45
2022/02/12 00:38:28;;;;;;;;;;;;;;;16.65;54.25;100764.72;2067347;28;20110;-44
2022/02/12 00:39:29;;;;;;;;;;;;;;;16.65;54.24;100759.28;2059599;28;19940;-45
2022/02/12 00:40:29;;;;;;;;;;;;;;;16.65;54.19;100752.97;2049551;28;19918;-44
2022/02/12 00:41:30;;;;;;;;;;;;;;;16.65;54.06;100747.53;2061824;28;19956;-44
2022/02/12 00:42:30;;;;;;;;;;;;;;;16.65;54.13;100751.13;2068162;28;20316;-44
2022/02/12 00:43:31;;;;;;;;;;;;;;;16.65;54.13;100742.94;2063829;28;20009;-45
2022/02/12 00:44:32;;;;;;;;;;;;;;;16.66;53.97;100743.84;2073727;28;19967;-45
2022/02/12 00:45:32;;;;;;;;;;;;;;;16.67;54.20;100749.16;2059069;28;19925;-44
2022/02/12 00:46:33;;;;;;;;;;;;;;;16.66;54.16;100746.56;2055192;28;20721;-44
2022/02/12 00:47:34;;;;;;;;;;;;;;;16.67;54.10;100743.72;2068113;28;19921;-44
2022/02/12 00:48:34;;;;;;;;;;;;;;;16.67;54.07;100740.97;2066263;28;20636;-45
2022/02/12 00:49:35;;;;;;;;;;;;;;;16.66;54.04;100736.53;2067536;28;19982;-46
2022/02/12 00:50:36;;;;;;;;;;;;;;;16.68;53.88;100741.84;2067078;28;20328;-45
2022/02/12 00:51:36;;;;;;;;;;;;;;;16.68;53.96;100737.28;2068365;28;19917;-45
2022/02/12 00:52:36;;;;;;;;;;;;;;;16.68;53.93;100739.13;2056674;28;20289;-45
2022/02/12 00:53:36;;;;;;;;;;;;;;;16.69;53.94;100735.44;2057101;28;20303;-45
2022/02/12 00:54:37;;;;;;;;;;;;;;;16.68;53.81;100726.41;2056788;28;19956;-45
2022/02/12 00:55:38;;;;;;;;;;;;;;;16.68;53.98;100742.75;2058095;28;19913;-44
2022/02/12 00:56:38;;;;;;;;;;;;;;;16.68;53.76;100736.41;2069221;28;19913;-45
2022/02/12 00:57:38;;;;;;;;;;;;;;;16.68;53.80;100740.00;2066945;28;19913;-44
2022/02/12 00:58:39;;;;;;;;;;;;;;;16.68;53.83;100737.28;2066252;28;20289;-48
2022/02/12 00:59:39;;;;;;;;;;;;;;;16.68;53.86;100736.41;2064744;28;20374;-45
2022/02/12 01:00:40;;;;;;;;;;;;;;;16.68;53.73;100730.97;2065655;28;20387;-44
2022/02/12 01:01:40;;;;;;;;;;;;;;;16.68;53.81;100737.28;2058874;28;20365;-45
2022/02/12 01:02:41;;;;;;;;;;;;;;;16.67;53.71;100735.53;2057737;28;19921;-44
2022/02/12 01:03:41;;;;;;;;;;;;;;;16.67;53.67;100740.97;2058433;28;19925;-45
2022/02/12 01:04:41;;;;;;;;;;;;;;;16.68;53.90;100741.84;2062968;28;20708;-45
2022/02/12 01:05:42;;;;;;;;;;;;;;;16.67;53.93;100740.97;2067127;28;19925;-45
2022/02/12 01:06:42;;;;;;;;;;;;;;;16.67;53.65;100751.00;2065157;28;19928;-45
2022/02/12 01:07:42;;;;;;;;;;;;;;;16.66;53.70;100743.84;2066826;28;20129;-44
2022/02/12 01:08:43;;;;;;;;;;;;;;;16.66;53.74;100749.28;2060075;28;19992;-45
2022/02/12 01:09:43;;;;;;;;;;;;;;;16.66;53.73;100743.84;2054463;28;20268;-44
2022/02/12 01:10:43;;;;;;;;;;;;;;;16.65;53.80;100736.66;2067109;28;19951;-43
2022/02/12 01:11:44;;;;;;;;;;;;;;;16.64;53.79;100737.66;2058802;28;19927;-44
2022/02/12 01:12:44;;;;;;;;;;;;;;;16.63;53.67;100734.03;2055339;28;20590;-44
2022/02/12 01:13:45;;;;;;;;;;;;;;;16.63;53.73;100734.03;2067497;28;19921;-43
2022/02/12 01:14:45;;;;;;;;;;;;;;;16.62;53.61;100731.44;2071144;28;19976;-44
2022/02/12 01:15:45;;;;;;;;;;;;;;;16.62;53.66;100734.16;2066528;28;20415;-43
2022/02/12 01:16:46;;;;;;;;;;;;;;;16.62;53.75;100732.31;2065842;28;19925;-44
2022/02/12 01:17:46;;;;;;;;;;;;;;;16.62;53.60;100731.44;2065661;28;20075;-45
2022/02/12 01:18:46;;;;;;;;;;;;;;;16.61;53.75;100735.13;2063466;28;19952;-45
2022/02/12 01:19:49;;;;;;;;;;;;;;;16.60;53.67;100734.28;2064932;28;19943;-43
2022/02/12 01:20:49;;;;;;;;;;;;;;;16.60;53.69;100739.72;2066099;28;20497;-46
2022/02/12 01:21:50;;;;;;;;;;;;;;;16.59;53.68;100732.56;2066780;28;19921;-45
2022/02/12 01:22:50;;;;;;;;;;;;;;;16.59;53.53;100738.00;2064244;28;20412;-43
2022/02/12 01:23:50;;;;;;;;;;;;;;;16.58;53.68;100736.25;2062005;28;19932;-46
2022/02/12 01:24:51;;;;;;;;;;;;;;;16.58;53.62;100738.09;2065582;28;19960;-44
2022/02/12 01:25:51;;;;;;;;;;;;;;;16.58;53.75;100736.25;2067314;28;19968;-44
2022/02/12 01:26:52;;;;;;;;;;;;;;;16.59;53.62;100734.41;2061974;28;20644;-44
2022/02/12 01:27:53;;;;;;;;;;;;;;;16.58;53.73;100725.34;2065482;28;19952;-43
2022/02/12 01:28:53;;;;;;;;;;;;;;;16.57;53.79;100731.81;2063710;28;19927;-43
2022/02/12 01:29:53;;;;;;;;;;;;;;;16.58;53.68;100729.94;2064566;28;19967;-44
2022/02/12 01:30:54;;;;;;;;;;;;;;;16.57;53.52;100726.34;2064690;28;19921;-43
2022/02/12 01:31:57;;;;;;;;;;;;;;;16.56;53.67;100730.06;2066047;28;19936;-45
2022/02/12 01:32:58;;;;;;;;;;;;;;;16.58;53.63;100728.06;2063194;28;19921;-44
2022/02/12 01:33:59;;;;;;;;;;;;;;;16.55;53.67;100728.31;2065898;28;19981;-44
2022/02/12 01:34:59;;;;;;;;;;;;;;;16.57;53.54;100726.34;2066527;28;19975;-44
2022/02/12 01:36:00;;;;;;;;;;;;;;;16.57;53.57;100729.06;2063503;28;19921;-44
2022/02/12 01:37:04;;;;;;;;;;;;;;;16.56;53.54;100724.63;2066295;28;19975;-44
2022/02/12 01:38:04;;;;;;;;;;;;;;;16.56;53.71;100724.63;2065342;28;19948;-45
2022/02/12 01:39:05;;;;;;;;;;;;;;;16.56;53.52;100716.47;2063767;28;19921;-43
2022/02/12 01:40:06;;;;;;;;;;;;;;;16.56;53.57;100721.00;2065662;28;19925;-44
2022/02/12 01:41:06;;;;;;;;;;;;;;;16.56;53.57;100716.47;2064463;28;19913;-43
2022/02/12 01:42:07;;;;;;;;;;;;;;;16.55;53.50;100720.16;2065282;28;19947;-44
2022/02/12 01:43:09;;;;;;;;;;;;;;;16.55;53.59;100719.28;2061592;28;21357;-44
2022/02/12 01:44:10;;;;;;;;;;;;;;;16.55;53.55;100717.44;2065794;28;20764;-44
2022/02/12 01:45:10;;;;;;;;;;;;;;;16.54;53.60;100710.28;2060116;28;19960;-45
2022/02/12 01:46:11;;;;;;;;;;;;;;;16.53;53.66;100711.22;2057467;28;20275;-43
2022/02/12 01:47:12;;;;;;;;;;;;;;;16.53;53.43;100708.50;2066058;28;19932;-45
2022/02/12 01:48:13;;;;;;;;;;;;;;;16.53;53.66;100711.22;2070072;28;19921;-44
2022/02/12 01:49:13;;;;;;;;;;;;;;;16.53;53.72;100715.81;2067645;28;20587;-45
2022/02/12 01:50:15;;;;;;;;;;;;;;;16.51;53.67;100707.75;2063503;28;19924;-44
2022/02/12 01:51:15;;;;;;;;;;;;;;;16.52;53.58;100714.09;2065375;28;19920;-43
2022/02/12 01:52:15;;;;;;;;;;;;;;;16.50;53.65;100712.34;2069507;28;19917;-44
2022/02/12 01:53:17;;;;;;;;;;;;;;;16.50;53.50;100706.91;2066643;28;19927;-44
2022/02/12 01:54:17;;;;;;;;;;;;;;;16.50;53.61;100706.91;2070211;28;19928;-44
2022/02/12 01:55:18;;;;;;;;;;;;;;;16.50;53.62;100706.03;2057689;28;19928;-43
2022/02/12 01:56:19;;;;;;;;;;;;;;;16.49;53.71;100709.75;2059115;28;19917;-45
2022/02/12 01:57:19;;;;;;;;;;;;;;;16.50;53.49;100711.47;2063233;28;19925;-44
2022/02/12 01:58:19;;;;;;;;;;;;;;;16.49;53.53;100709.75;2065701;28;20730;-43
2022/02/12 01:59:23;;;;;;;;;;;;;;;16.50;53.62;100711.47;2071027;28;19921;-44
2022/02/12 02:00:24;;;;;;;;;;;;;;;16.49;53.59;100709.75;2076436;28;19921;-44
2022/02/12 02:01:24;;;;;;;;;;;;;;;16.49;53.33;100712.47;2078334;28;19921;-44
2022/02/12 02:02:25;;;;;;;;;;;;;;;16.49;53.52;100716.06;2079397;28;19928;-44
2022/02/12 02:03:25;;;;;;;;;;;;;;;16.49;53.45;100709.75;2070672;28;19928;-44
2022/02/12 02:04:25;;;;;;;;;;;;;;;16.48;53.57;100705.28;2067973;28;19928;-45
2022/02/12 02:05:26;;;;;;;;;;;;;;;16.48;53.46;100708.00;2065585;28;20138;-44
2022/02/12 02:06:26;;;;;;;;;;;;;;;16.48;53.45;100708.00;2064627;28;19997;-44
2022/02/12 02:07:27;;;;;;;;;;;;;;;16.49;53.45;100707.03;2064153;28;19964;-45
2022/02/12 02:08:28;;;;;;;;;;;;;;;16.48;53.62;100708.88;2070827;28;19932;-44
2022/02/12 02:09:29;;;;;;;;;;;;;;;16.49;53.59;100698.88;2065551;28;19948;-43
2022/02/12 02:10:30;;;;;;;;;;;;;;;16.48;53.39;100705.28;2067041;28;20036;-44
2022/02/12 02:11:30;;;;;;;;;;;;;;;16.49;53.33;100704.31;2064623;28;20568;-44
2022/02/12 02:12:31;;;;;;;;;;;;;;;16.50;53.28;100701.47;2068637;28;19928;-44
2022/02/12 02:13:32;;;;;;;;;;;;;;;16.50;53.50;100701.47;2067135;28;19936;-45
2022/02/12 02:14:33;;;;;;;;;;;;;;;16.49;53.42;100697.00;2066886;28;20307;-43
2022/02/12 02:15:33;;;;;;;;;;;;;;;16.50;53.32;100693.28;2068551;28;19924;-44
2022/02/12 02:16:33;;;;;;;;;;;;;;;16.50;53.50;100697.88;2064873;28;19921;-44
2022/02/12 02:17:34;;;;;;;;;;;;;;;16.49;53.50;100685.28;2068413;28;19921;-44
2022/02/12 02:18:34;;;;;;;;;;;;;;;16.50;53.42;100696.00;2066951;28;19955;-43
2022/02/12 02:19:35;;;;;;;;;;;;;;;16.52;53.52;100690.47;2067024;28;19921;-45
2022/02/12 02:20:35;;;;;;;;;;;;;;;16.52;53.47;100693.19;2068709;28;20248;-45
2022/02/12 02:21:36;;;;;;;;;;;;;;;16.51;53.50;100691.44;2066584;28;19921;-43
2022/02/12 02:22:49;;;;;;;;;;;;;;;16.52;53.38;100687.75;2062114;28;19909;-44
2022/02/12 02:23:50;;;;;;;;;;;;;;;16.52;53.50;100687.75;2066029;28;19920;-43
2022/02/12 02:24:51;;;;;;;;;;;;;;;16.51;53.53;100683.28;2066855;28;20002;-44
2022/02/12 02:25:51;;;;;;;;;;;;;;;16.51;53.36;100677.81;2066955;28;19925;-44
2022/02/12 02:27:02;;;;;;;;;;;;;;;16.52;53.27;100682.31;2066040;28;20253;-43
2022/02/12 02:28:02;;;;;;;;;;;;;;;16.51;53.27;100677.81;2066351;28;19921;-44
2022/02/12 02:29:03;;;;;;;;;;;;;;;16.49;53.01;100679.81;2058869;28;20552;-44
2022/02/12 02:30:04;;;;;;;;;;;;;;;16.50;53.33;100673.38;2053215;28;20107;-43
2022/02/12 02:31:04;;;;;;;;;;;;;;;16.50;53.29;100684.28;2055932;28;20754;-44
2022/02/12 02:32:04;;;;;;;;;;;;;;;16.49;53.35;100677.09;2070375;28;19913;-44
2022/02/12 02:33:05;;;;;;;;;;;;;;;16.49;53.23;100669.81;2071526;28;19921;-45
2022/02/12 02:34:12;;;;;;;;;;;;;;;16.48;53.39;100673.50;2071777;28;19921;-44
2022/02/12 02:35:15;;;;;;;;;;;;;;;16.49;53.16;100668.94;2066394;28;19976;-45
2022/02/12 02:36:16;;;;;;;;;;;;;;;16.48;53.26;100664.47;2068229;28;19921;-44
2022/02/12 02:37:16;;;;;;;;;;;;;;;16.48;53.07;100662.59;2066040;28;20401;-43
2022/02/12 02:38:17;;;;;;;;;;;;;;;16.48;53.05;100664.47;2056776;28;19989;-44
2022/02/12 02:39:17;;;;;;;;;;;;;;;16.47;53.11;100660.88;2061008;28;19964;-44
2022/02/12 02:40:19;;;;;;;;;;;;;;;16.48;53.14;100659.03;2069954;28;20422;-44
2022/02/12 02:41:20;;;;;;;;;;;;;;;16.45;53.26;100657.41;2075136;28;20470;-44
2022/02/12 02:42:20;;;;;;;;;;;;;;;16.46;53.28;100652.81;2055549;28;20001;-44
2022/02/12 02:43:22;;;;;;;;;;;;;;;16.47;53.21;100660.88;2060496;28;20272;-43
2022/02/12 02:44:22;;;;;;;;;;;;;;;16.46;52.95;100650.09;2068895;28;20675;-44
2022/02/12 02:45:22;;;;;;;;;;;;;;;16.46;52.86;100652.81;2067540;28;19979;-43
2022/02/12 02:46:22;;;;;;;;;;;;;;;16.46;52.92;100652.81;2071773;28;19927;-44
2022/02/12 02:47:42;;;;;;;;;;;;;;;16.46;53.01;100645.56;2069433;28;19936;-44
2022/02/12 02:48:42;;;;;;;;;;;;;;;16.46;53.15;100644.66;2065040;28;20425;-44
2022/02/12 02:49:42;;;;;;;;;;;;;;;16.45;53.11;100642.94;2069077;28;19917;-44
2022/02/12 02:56:07;;;;;;;;;;;;;;;16.45;53.07;100634.78;2066911;28;19925;-44
2022/02/12 02:57:07;;;;;;;;;;;;;;;16.45;53.07;100637.50;2069493;28;19921;-43
2022/02/12 02:58:07;;;;;;;;;;;;;;;16.44;53.09;100628.47;2067996;28;19920;-44
2022/02/12 02:59:08;;;;;;;;;;;;;;;16.45;53.06;100634.78;2065969;28;20307;-44
2022/02/12 03:00:09;;;;;;;;;;;;;;;16.43;53.12;100625.84;2066342;28;19921;-44
2022/02/12 03:01:10;;;;;;;;;;;;;;;16.43;52.95;100631.31;2065524;28;20663;-44
2022/02/12 03:02:10;;;;;;;;;;;;;;;16.43;52.97;100634.03;2074795;28;19955;-46
2022/02/12 03:03:11;;;;;;;;;;;;;;;16.43;53.07;100625.84;2066225;28;19928;-44
2022/02/12 03:04:11;;;;;;;;;;;;;;;16.43;53.14;100634.03;2066941;28;19944;-44
2022/02/12 03:05:12;;;;;;;;;;;;;;;16.42;53.04;100627.72;2066618;28;19932;-45
2022/02/12 03:06:13;;;;;;;;;;;;;;;16.42;52.98;100629.59;2063801;28;20393;-46
2022/02/12 03:07:13;;;;;;;;;;;;;;;16.41;52.98;100619.66;2067682;28;19925;-44
2022/02/12 03:08:14;;;;;;;;;;;;;;;16.41;53.17;100625.09;2056647;28;19921;-44
2022/02/12 03:09:14;;;;;;;;;;;;;;;16.41;53.04;100619.66;2057195;28;19994;-46
2022/02/12 03:10:15;;;;;;;;;;;;;;;16.40;53.02;100620.66;2067370;28;19960;-45
2022/02/12 03:11:15;;;;;;;;;;;;;;;16.39;53.05;100617.09;2070152;28;19976;-45
2022/02/12 03:12:16;;;;;;;;;;;;;;;16.39;53.01;100619.81;2067651;28;19949;-44
2022/02/12 03:13:16;;;;;;;;;;;;;;;16.40;52.91;100634.28;2068591;28;19986;-43
2022/02/12 03:14:17;;;;;;;;;;;;;;;16.39;53.11;100627.06;2056697;28;19917;-44
2022/02/12 03:15:17;;;;;;;;;;;;;;;16.39;53.00;100621.63;2058722;28;19918;-43
2022/02/12 03:16:18;;;;;;;;;;;;;;;16.37;53.03;100613.63;2065274;28;19920;-44
2022/02/12 03:17:18;;;;;;;;;;;;;;;16.39;52.94;100627.06;2052436;28;19918;-44
2022/02/12 03:18:18;;;;;;;;;;;;;;;16.37;52.87;100619.06;2056433;28;19909;-44
2022/02/12 03:19:19;;;;;;;;;;;;;;;16.37;52.92;100624.50;2066819;28;20760;-43
2022/02/12 03:20:19;;;;;;;;;;;;;;;16.38;52.85;100615.34;2067731;28;19954;-43
2022/02/12 03:21:20;;;;;;;;;;;;;;;16.37;52.82;100608.16;2066473;28;19921;-45
2022/02/12 03:22:20;;;;;;;;;;;;;;;16.38;53.00;100609.03;2069687;28;19963;-44
2022/02/12 03:23:20;;;;;;;;;;;;;;;16.38;52.80;100603.59;2070548;28;20320;-44
2022/02/12 03:24:21;;;;;;;;;;;;;;;16.38;53.00;100603.59;2068819;28;20246;-45
2022/02/12 03:25:21;;;;;;;;;;;;;;;16.38;52.93;100603.59;2076288;28;19948;-45
2022/02/12 03:26:23;;;;;;;;;;;;;;;16.37;52.86;100610.03;2076341;28;19960;-43
2022/02/12 03:27:23;;;;;;;;;;;;;;;16.37;52.90;100607.31;2064903;28;19918;-43
2022/02/12 03:28:23;;;;;;;;;;;;;;;16.37;53.02;100608.16;2068448;28;20339;-44
2022/02/12 03:29:24;;;;;;;;;;;;;;;16.36;52.92;100617.31;2067826;28;19948;-44
2022/02/12 03:30:31;;;;;;;;;;;;;;;16.37;53.00;100618.19;2065931;28;20483;-44
2022/02/12 03:31:32;;;;;;;;;;;;;;;16.37;52.85;100623.63;2053158;28;19953;-43
2022/02/12 03:32:32;;;;;;;;;;;;;;;16.37;52.88;100612.75;2047950;28;20381;-45
2022/02/12 03:33:33;;;;;;;;;;;;;;;16.36;52.94;100611.00;2058237;28;19921;-44
2022/02/12 03:34:33;;;;;;;;;;;;;;;16.36;52.86;100619.16;2069135;28;19917;-44
2022/02/12 03:35:34;;;;;;;;;;;;;;;16.35;52.80;100607.41;2064465;28;20339;-43
2022/02/12 03:36:34;;;;;;;;;;;;;;;16.35;52.88;100606.56;2066994;28;19921;-43
2022/02/12 03:37:34;;;;;;;;;;;;;;;16.35;52.88;100609.28;2065587;28;20443;-44
2022/02/12 03:38:35;;;;;;;;;;;;;;;16.36;52.90;100605.56;2066266;28;19975;-47
2022/02/12 03:39:36;;;;;;;;;;;;;;;16.35;52.78;100612.00;2069459;28;19967;-44
2022/02/12 03:40:38;;;;;;;;;;;;;;;16.34;52.95;100608.41;2065889;28;20677;-45
2022/02/12 03:41:39;;;;;;;;;;;;;;;16.35;52.82;100606.56;2067371;28;19921;-42
2022/02/12 03:42:39;;;;;;;;;;;;;;;16.35;52.84;100610.13;2069941;28;20596;-45
2022/02/12 03:43:40;;;;;;;;;;;;;;;16.34;52.86;100602.09;2069481;28;20418;-44
2022/02/12 03:44:40;;;;;;;;;;;;;;;16.36;52.92;100608.28;2070328;28;19965;-45
2022/02/12 03:45:40;;;;;;;;;;;;;;;16.35;52.94;100604.69;2061523;28;19933;-43
2022/02/12 03:46:41;;;;;;;;;;;;;;;16.36;52.93;100605.56;2057978;28;19921;-44
2022/02/12 03:47:41;;;;;;;;;;;;;;;16.36;52.85;100611.00;2059854;28;19960;-44
2022/02/12 03:48:42;;;;;;;;;;;;;;;16.34;52.99;100602.97;2064108;28;19921;-43
2022/02/12 03:49:43;;;;;;;;;;;;;;;16.36;53.07;100608.28;2066953;28;19943;-44
2022/02/12 03:50:44;;;;;;;;;;;;;;;16.37;53.19;100612.75;2065151;28;20466;-45
2022/02/12 03:51:44;;;;;;;;;;;;;;;16.36;53.30;100603.69;2056885;28;19921;-43
2022/02/12 03:52:45;;;;;;;;;;;;;;;16.37;53.04;100604.59;2057913;28;19921;-44
2022/02/12 03:53:46;;;;;;;;;;;;;;;16.37;53.17;100605.44;2061803;28;19921;-44
2022/02/12 03:54:46;;;;;;;;;;;;;;;16.36;53.08;100603.69;2068422;28;20011;-44
2022/02/12 03:55:47;;;;;;;;;;;;;;;16.37;53.19;100607.31;2069554;28;19921;-43
2022/02/12 03:56:47;;;;;;;;;;;;;;;16.36;52.96;100600.97;2066422;28;20296;-43
2022/02/12 03:57:48;;;;;;;;;;;;;;;16.36;52.80;100605.56;2066494;28;20759;-43
2022/02/12 03:58:48;;;;;;;;;;;;;;;16.36;52.84;100602.84;2070999;28;19924;-44
2022/02/12 03:59:49;;;;;;;;;;;;;;;16.36;53.02;100602.84;2068117;28;19921;-44
2022/02/12 04:00:49;;;;;;;;;;;;;;;16.36;52.83;100606.41;2066048;28;19929;-44
2022/02/12 04:01:50;;;;;;;;;;;;;;;16.36;52.86;100602.84;2067750;28;19929;-44
2022/02/12 04:02:50;;;;;;;;;;;;;;;16.36;52.86;100605.56;2067475;28;19917;-45
2022/02/12 04:03:52;;;;;;;;;;;;;;;16.34;52.75;100597.53;2066470;28;19960;-44
2022/02/12 04:04:52;;;;;;;;;;;;;;;16.36;52.81;100605.56;2070091;28;19921;-44
2022/02/12 04:05:53;;;;;;;;;;;;;;;16.36;52.75;100600.13;2065347;28;20342;-44
2022/02/12 04:06:53;;;;;;;;;;;;;;;16.35;52.64;100598.41;2057877;28;20572;-44
2022/02/12 04:07:53;;;;;;;;;;;;;;;16.34;52.90;100599.38;2065336;28;20234;-44
2022/02/12 04:08:54;;;;;;;;;;;;;;;16.35;52.71;100601.13;2065826;28;19944;-43
2022/02/12 04:09:54;;;;;;;;;;;;;;;16.35;52.74;100603.84;2059042;28;19922;-43
2022/02/12 04:10:54;;;;;;;;;;;;;;;16.34;52.64;100591.19;2055044;28;19965;-44
2022/02/12 04:11:54;;;;;;;;;;;;;;;16.35;52.71;100598.41;2062398;28;20964;-44
2022/02/12 04:12:55;;;;;;;;;;;;;;;16.34;52.57;100596.66;2069013;28;20435;-44
2022/02/12 04:13:55;;;;;;;;;;;;;;;16.34;52.73;100591.19;2067825;28;19921;-43
2022/02/12 04:14:56;;;;;;;;;;;;;;;16.34;52.64;100596.66;2068072;28;20697;-43
2022/02/12 04:15:56;;;;;;;;;;;;;;;16.34;52.60;100596.66;2067255;28;20522;-44
2022/02/12 04:16:56;;;;;;;;;;;;;;;16.33;52.56;100600.38;2063176;28;20622;-44
2022/02/12 04:17:56;;;;;;;;;;;;;;;16.32;52.79;100593.19;2072113;28;19921;-43
2022/02/12 04:18:57;;;;;;;;;;;;;;;16.31;52.73;100596.88;2067327;28;20271;-43
2022/02/12 04:20:01;;;;;;;;;;;;;;;16.31;52.66;100597.75;2066576;28;20678;-44
2022/02/12 04:21:01;;;;;;;;;;;;;;;16.31;52.79;100596.88;2066772;28;20012;-43
2022/02/12 04:22:02;;;;;;;;;;;;;;;16.31;52.73;100591.44;2067184;28;19920;-44
2022/02/12 04:23:02;;;;;;;;;;;;;;;16.31;52.59;100594.16;2067110;28;19967;-43
2022/02/12 04:24:03;;;;;;;;;;;;;;;16.32;52.73;100604.09;2066693;28;20589;-44
2022/02/12 04:25:05;;;;;;;;;;;;;;;16.31;52.62;100602.34;2071900;28;20005;-44
2022/02/12 04:26:08;;;;;;;;;;;;;;;16.29;52.67;100600.59;2065275;28;20020;-44
2022/02/12 04:27:08;;;;;;;;;;;;;;;16.29;52.73;100599.72;2065852;28;19928;-44
2022/02/12 04:28:09;;;;;;;;;;;;;;;16.30;52.63;100604.19;2066572;28;20561;-44
2022/02/12 04:29:10;;;;;;;;;;;;;;;16.28;52.53;100593.41;2063422;28;20332;-44
2022/02/12 04:30:11;;;;;;;;;;;;;;;16.29;52.75;100595.16;2065552;28;19913;-46
2022/02/12 04:31:12;;;;;;;;;;;;;;;16.29;52.57;100597.88;2068063;28;19921;-44
2022/02/12 04:32:13;;;;;;;;;;;;;;;16.28;52.51;100596.13;2069214;28;19928;-43
2022/02/12 04:33:14;;;;;;;;;;;;;;;16.28;52.67;100607.03;2066207;28;19925;-44
2022/02/12 04:34:14;;;;;;;;;;;;;;;16.27;52.59;100607.16;2064589;28;20811;-44
2022/02/12 04:35:17;;;;;;;;;;;;;;;16.27;52.62;100601.72;2057468;28;19925;-43
2022/02/12 04:36:18;;;;;;;;;;;;;;;16.26;52.63;100595.38;2063665;28;19928;-43
2022/02/12 04:37:19;;;;;;;;;;;;;;;16.27;52.65;100602.56;2065707;28;20621;-44
2022/02/12 04:38:19;;;;;;;;;;;;;;;16.27;52.59;100601.72;2064974;28;20320;-44
2022/02/12 04:39:19;;;;;;;;;;;;;;;16.26;52.46;100589.94;2066666;28;20244;-44
2022/02/12 04:40:20;;;;;;;;;;;;;;;16.27;52.53;100591.69;2067480;28;19917;-43
2022/02/12 04:41:20;;;;;;;;;;;;;;;16.27;52.59;100597.13;2069889;28;19960;-44
2022/02/12 04:42:20;;;;;;;;;;;;;;;16.26;52.61;100600.81;2064444;28;19925;-43
2022/02/12 04:43:20;;;;;;;;;;;;;;;16.26;52.49;100598.09;2065819;28;19936;-43
2022/02/12 04:44:21;;;;;;;;;;;;;;;16.26;52.49;100595.38;2062023;28;19949;-43
2022/02/12 04:45:23;;;;;;;;;;;;;;;16.26;52.61;100597.25;2059112;28;20101;-43
2022/02/12 04:46:23;;;;;;;;;;;;;;;16.26;52.54;100595.38;2066507;28;19995;-44
2022/02/12 04:47:23;;;;;;;;;;;;;;;16.25;52.71;100593.66;2067488;28;20047;-43
2022/02/12 04:48:25;;;;;;;;;;;;;;;16.25;52.62;100588.22;2064815;28;19928;-45
2022/02/12 04:49:25;;;;;;;;;;;;;;;16.25;52.59;100593.66;2075272;28;19921;-44
2022/02/12 04:50:25;;;;;;;;;;;;;;;16.25;52.71;100593.66;2068828;28;19940;-44
2022/02/12 04:51:26;;;;;;;;;;;;;;;16.25;52.76;100599.09;2066302;28;19921;-43
2022/02/12 04:52:26;;;;;;;;;;;;;;;16.25;52.64;100598.25;2058961;28;20293;-43
2022/02/12 04:53:27;;;;;;;;;;;;;;;16.25;52.58;100607.25;2057796;28;19928;-43
2022/02/12 04:54:27;;;;;;;;;;;;;;;16.25;52.77;100599.09;2062759;28;20098;-43
2022/02/12 04:55:27;;;;;;;;;;;;;;;16.25;52.72;100599.09;2067132;28;19925;-45
2022/02/12 04:56:28;;;;;;;;;;;;;;;16.26;52.68;100597.25;2069045;28;19920;-43
2022/02/12 04:57:28;;;;;;;;;;;;;;;16.26;52.75;100594.53;2065882;28;19937;-43
2022/02/12 04:58:28;;;;;;;;;;;;;;;16.26;52.67;100597.25;2065641;28;20455;-43
2022/02/12 04:59:29;;;;;;;;;;;;;;;16.26;52.72;100603.53;2073626;28;19926;-45
2022/02/12 05:00:29;;;;;;;;;;;;;;;16.26;52.72;100603.53;2064452;28;20044;-44
2022/02/12 05:01:30;;;;;;;;;;;;;;;16.27;52.60;100601.72;2061560;28;19926;-43
2022/02/12 05:02:30;;;;;;;;;;;;;;;16.27;52.79;100612.59;2066768;28;19926;-44
2022/02/12 05:03:30;;;;;;;;;;;;;;;16.28;52.77;100606.16;2068941;28;19925;-43
2022/02/12 05:04:31;;;;;;;;;;;;;;;16.27;52.61;100602.56;2066754;28;19913;-44
2022/02/12 05:05:31;;;;;;;;;;;;;;;16.27;52.78;100601.72;2066927;28;19963;-44
2022/02/12 05:06:31;;;;;;;;;;;;;;;16.25;52.81;100590.94;2065641;28;20662;-44
2022/02/12 05:07:32;;;;;;;;;;;;;;;16.26;52.70;100589.94;2067869;28;19976;-43
2022/02/12 05:08:32;;;;;;;;;;;;;;;16.26;52.68;100592.66;2064405;28;20597;-43
2022/02/12 05:09:34;;;;;;;;;;;;;;;16.27;52.72;100596.28;2068380;28;20127;-45
2022/02/12 05:10:35;;;;;;;;;;;;;;;16.26;52.79;100595.38;2065756;28;20320;-44
2022/02/12 05:11:35;;;;;;;;;;;;;;;16.26;52.68;100595.38;2066108;28;19909;-43
2022/02/12 05:12:35;;;;;;;;;;;;;;;16.26;52.67;100589.09;2067476;28;19917;-44
2022/02/12 05:13:36;;;;;;;;;;;;;;;16.26;52.54;100583.63;2065507;28;19917;-43
2022/02/12 05:14:36;;;;;;;;;;;;;;;16.26;52.54;100584.50;2067780;28;19921;-43
2022/02/12 05:15:36;;;;;;;;;;;;;;;16.26;52.60;100592.66;2065815;28;19927;-44
2022/02/12 05:16:37;;;;;;;;;;;;;;;16.25;52.52;100604.53;2063545;28;19925;-44